createdAt,value
2017-11-25T00:00:37.456Z,58.35
2017-11-25T00:03:05.677Z,57.95
2017-11-25T00:05:33.164Z,53.33
2017-11-25T00:08:01.419Z,48.70
2017-11-25T00:10:29.639Z,53.45
2017-11-25T00:12:57.081Z,49.35
2017-11-25T00:15:24.550Z,43.00
2017-11-25T00:17:52.023Z,53.13
2017-11-25T00:20:19.469Z,52.67
2017-11-25T00:22:46.926Z,47.83
2017-11-25T00:25:14.385Z,51.50
2017-11-25T00:27:41.842Z,66.07
2017-11-25T00:30:09.306Z,55.12
2017-11-25T00:32:36.779Z,58.53
2017-11-25T00:35:04.290Z,67.43
2017-11-25T00:37:32.513Z,57.75
2017-11-25T00:40:00.005Z,51.72
2017-11-25T00:42:28.246Z,55.97
2017-11-25T00:44:55.717Z,61.65
2017-11-25T00:47:23.232Z,52.47
2017-11-25T00:49:50.779Z,48.90
2017-11-25T00:52:19.005Z,62.65
2017-11-25T00:54:46.457Z,65.62
2017-11-25T00:57:13.937Z,66.72
2017-11-25T00:59:42.160Z,65.43
2017-11-25T01:02:09.625Z,69.30
2017-11-25T01:04:37.191Z,57.25
2017-11-25T01:07:04.637Z,66.47
2017-11-25T01:09:32.150Z,62.97
2017-11-25T01:11:59.610Z,60.95
2017-11-25T01:14:27.850Z,81.28
2017-11-25T01:16:55.394Z,71.47
2017-11-25T01:19:22.850Z,67.57
2017-11-25T01:21:51.093Z,66.37
2017-11-25T01:24:18.579Z,69.75
2017-11-25T01:26:46.029Z,66.93
2017-11-25T01:29:13.477Z,71.60
2017-11-25T01:31:40.954Z,59.25
2017-11-25T01:34:08.421Z,69.32
2017-11-25T01:36:36.662Z,67.55
2017-11-25T01:39:04.157Z,64.12
2017-11-25T01:41:31.649Z,69.93
2017-11-25T01:43:59.109Z,75.12
2017-11-25T01:46:27.453Z,62.20
2017-11-25T01:48:54.900Z,69.70
2017-11-25T01:51:23.126Z,65.50
2017-11-25T01:53:50.598Z,64.22
2017-11-25T01:56:18.049Z,86.87
2017-11-25T01:58:46.297Z,61.72
2017-11-25T02:01:14.554Z,56.75
2017-11-25T02:03:42.013Z,71.40
2017-11-25T02:06:10.248Z,60.00
2017-11-25T02:08:37.706Z,58.67
2017-11-25T02:11:05.933Z,65.78
2017-11-25T02:13:33.394Z,63.65
2017-11-25T02:16:00.841Z,63.30
2017-11-25T02:18:28.381Z,60.95
2017-11-25T02:20:55.939Z,69.95
2017-11-25T02:23:24.161Z,73.65
2017-11-25T02:25:51.740Z,84.75
2017-11-25T02:28:19.995Z,84.22
2017-11-25T02:30:47.440Z,75.93
2017-11-25T02:33:15.799Z,71.50
2017-11-25T02:35:44.013Z,82.35
2017-11-25T02:38:11.499Z,76.00
2017-11-25T02:40:39.044Z,79.10
2017-11-25T02:43:08.017Z,77.82
2017-11-25T02:45:35.509Z,73.22
2017-11-25T02:48:02.960Z,77.40
2017-11-25T02:50:30.412Z,84.85
2017-11-25T02:52:57.985Z,91.90
2017-11-25T02:55:25.444Z,82.10
2017-11-25T02:57:53.686Z,70.37
2017-11-25T03:00:21.179Z,65.62
2017-11-25T03:02:48.629Z,65.10
2017-11-25T03:05:16.082Z,82.97
2017-11-25T03:07:43.542Z,77.15
2017-11-25T03:10:10.997Z,76.97
2017-11-25T03:12:38.474Z,78.53
2017-11-25T03:15:05.985Z,64.95
2017-11-25T03:17:33.433Z,67.32
2017-11-25T03:20:01.685Z,73.07
2017-11-25T03:22:29.221Z,76.22
2017-11-25T03:24:56.678Z,70.85
2017-11-25T03:27:24.901Z,85.45
2017-11-25T03:29:52.374Z,77.07
2017-11-25T03:32:20.605Z,74.37
2017-11-25T03:34:48.061Z,92.10
2017-11-25T03:37:15.610Z,72.35
2017-11-25T03:39:43.099Z,68.72
2017-11-25T03:42:10.550Z,74.32
2017-11-25T03:44:38.044Z,67.03
2017-11-25T03:47:05.591Z,73.05
2017-11-25T03:49:33.850Z,64.00
2017-11-25T03:52:01.301Z,65.12
2017-11-25T03:54:29.541Z,60.35
2017-11-25T03:56:57.011Z,65.12
2017-11-25T03:59:24.460Z,75.60
2017-11-25T04:01:51.919Z,77.72
2017-11-25T04:04:19.413Z,79.03
2017-11-25T04:06:47.640Z,72.55
2017-11-25T04:09:15.111Z,72.53
2017-11-25T04:11:42.663Z,75.97
2017-11-25T04:14:10.897Z,81.80
2017-11-25T04:16:38.457Z,57.67
2017-11-25T04:19:05.922Z,62.70
2017-11-25T04:21:33.397Z,55.85
2017-11-25T04:24:00.857Z,61.45
2017-11-25T04:26:28.316Z,55.03
2017-11-25T04:28:55.871Z,46.90
2017-11-25T04:31:23.417Z,46.50
2017-11-25T04:33:50.863Z,45.65
2017-11-25T04:36:19.093Z,41.37
2017-11-25T04:38:46.549Z,52.13
2017-11-25T04:41:14.099Z,48.05
2017-11-25T04:43:42.321Z,50.95
2017-11-25T04:46:09.773Z,50.88
2017-11-25T04:48:37.345Z,43.67
2017-11-25T04:51:04.797Z,48.28
2017-11-25T04:53:33.054Z,49.30
2017-11-25T04:56:01.305Z,50.08
2017-11-25T04:58:28.883Z,45.42
2017-11-25T05:00:56.339Z,42.62
2017-11-25T05:03:23.834Z,43.10
2017-11-25T05:05:51.301Z,47.35
2017-11-25T05:08:18.829Z,47.17
2017-11-25T05:10:47.056Z,49.15
2017-11-25T05:13:14.505Z,51.70
2017-11-25T05:15:41.977Z,47.45
2017-11-25T05:18:10.262Z,53.63
2017-11-25T05:20:37.720Z,54.67
2017-11-25T05:23:05.235Z,49.17
2017-11-25T05:25:32.753Z,42.47
2017-11-25T05:28:00.971Z,44.22
2017-11-25T05:30:28.446Z,48.87
2017-11-25T05:32:55.988Z,41.85
2017-11-25T05:35:23.534Z,40.78
2017-11-25T05:37:50.988Z,42.00
2017-11-25T05:40:19.250Z,38.88
2017-11-25T05:42:47.457Z,48.03
2017-11-25T05:45:14.943Z,47.90
2017-11-25T05:47:43.174Z,39.90
2017-11-25T05:50:10.730Z,46.37
2017-11-25T05:52:38.287Z,40.72
2017-11-25T05:55:05.757Z,44.13
2017-11-25T05:57:33.209Z,52.33
2017-11-25T06:00:00.666Z,41.25
2017-11-25T06:02:28.153Z,41.25
2017-11-25T06:04:55.609Z,38.30
2017-11-25T06:07:23.857Z,34.28
2017-11-25T06:09:51.330Z,33.97
2017-11-25T06:12:18.833Z,37.53
2017-11-25T06:14:46.296Z,32.60
2017-11-25T06:17:14.529Z,26.92
2017-11-25T06:19:41.974Z,33.28
2017-11-25T06:22:09.434Z,27.75
2017-11-25T06:24:37.782Z,27.67
2017-11-25T06:27:05.298Z,28.02
2017-11-25T06:29:32.765Z,29.35
2017-11-25T06:32:00.242Z,32.17
2017-11-25T06:34:27.703Z,30.73
2017-11-25T06:36:55.153Z,27.80
2017-11-25T06:39:22.628Z,27.50
2017-11-25T06:41:50.082Z,27.60
2017-11-25T06:44:18.298Z,28.23
2017-11-25T06:46:45.753Z,32.65
2017-11-25T06:49:13.220Z,19.52
2017-11-25T06:51:40.689Z,18.27
2017-11-25T06:54:08.196Z,25.00
2017-11-25T06:56:35.745Z,18.17
2017-11-25T06:59:03.286Z,19.15
2017-11-25T07:01:30.833Z,19.42
2017-11-25T07:03:58.291Z,20.10
2017-11-25T07:06:26.542Z,20.58
2017-11-25T07:08:54.768Z,21.52
2017-11-25T07:11:22.217Z,12.65
2017-11-25T07:13:49.775Z,14.95
2017-11-25T07:16:17.218Z,14.32
2017-11-25T07:18:44.669Z,10.82
2017-11-25T07:21:12.910Z,12.95
2017-11-25T07:23:40.462Z,10.98
2017-11-25T07:26:07.918Z,10.25
2017-11-25T07:28:36.269Z,9.63
2017-11-25T07:31:03.708Z,9.40
2017-11-25T07:33:31.161Z,8.65
2017-11-25T07:35:59.369Z,8.30
2017-11-25T07:38:26.848Z,11.68
2017-11-25T07:40:54.301Z,6.18
2017-11-25T07:43:22.549Z,5.37
2017-11-25T07:45:49.994Z,4.85
2017-11-25T07:48:17.532Z,6.55
2017-11-25T07:50:44.993Z,4.72
2017-11-25T07:53:13.200Z,7.65
2017-11-25T07:55:40.649Z,8.65
2017-11-25T07:58:08.110Z,6.05
2017-11-25T08:00:35.558Z,5.93
2017-11-25T08:03:03.105Z,6.18
2017-11-25T08:05:30.560Z,4.87
2017-11-25T08:07:58.772Z,5.68
2017-11-25T08:10:26.249Z,6.95
2017-11-25T08:12:53.702Z,6.50
2017-11-25T08:15:21.930Z,7.40
2017-11-25T08:17:49.366Z,5.60
2017-11-25T08:20:16.829Z,5.95
2017-11-25T08:22:44.284Z,8.27
2017-11-25T08:25:12.514Z,6.45
2017-11-25T08:27:40.074Z,11.40
2017-11-25T08:30:07.618Z,6.62
2017-11-25T08:32:35.161Z,5.28
2017-11-25T08:35:02.706Z,6.70
2017-11-25T08:37:30.251Z,6.15
2017-11-25T08:39:57.697Z,5.68
2017-11-25T08:42:25.146Z,5.15
2017-11-25T08:44:53.383Z,6.78
2017-11-25T08:47:20.834Z,12.07
2017-11-25T08:49:48.373Z,9.07
2017-11-25T08:52:15.825Z,10.88
2017-11-25T08:54:44.079Z,11.52
2017-11-25T08:57:11.530Z,12.52
2017-11-25T08:59:39.749Z,13.02
2017-11-25T09:02:07.221Z,11.38
2017-11-25T09:04:34.768Z,12.90
2017-11-25T09:07:02.305Z,12.68
2017-11-25T09:09:29.773Z,11.48
2017-11-25T09:11:58.009Z,12.25
2017-11-25T09:14:25.457Z,15.25
2017-11-25T09:16:53.709Z,14.10
2017-11-25T09:19:21.158Z,14.87
2017-11-25T09:21:49.385Z,14.30
2017-11-25T09:24:16.837Z,16.77
2017-11-25T09:26:44.301Z,26.77
2017-11-25T09:29:12.519Z,16.05
2017-11-25T09:31:40.093Z,18.35
2017-11-25T09:34:07.546Z,17.52
2017-11-25T09:36:35.761Z,18.02
2017-11-25T09:39:03.228Z,15.00
2017-11-25T09:41:30.678Z,24.40
2017-11-25T09:43:58.202Z,30.08
2017-11-25T09:46:25.764Z,30.58
2017-11-25T09:48:53.226Z,23.00
2017-11-25T09:51:21.448Z,20.15
2017-11-25T09:53:49.016Z,17.67
2017-11-25T09:56:16.553Z,20.30
2017-11-25T09:58:44.197Z,18.70
2017-11-25T10:01:11.657Z,19.55
2017-11-25T10:03:39.881Z,16.30
2017-11-25T10:06:07.346Z,15.40
2017-11-25T10:08:34.793Z,18.70
2017-11-25T10:11:03.028Z,18.62
2017-11-25T10:13:30.490Z,17.50
2017-11-25T10:15:58.034Z,15.77
2017-11-25T10:18:25.573Z,10.95
2017-11-25T10:20:53.117Z,12.02
2017-11-25T10:23:20.573Z,12.52
2017-11-25T10:25:48.821Z,11.60
2017-11-25T10:28:16.279Z,11.73
2017-11-25T10:30:44.507Z,14.60
2017-11-25T10:33:12.068Z,14.15
2017-11-25T10:35:39.513Z,11.27
2017-11-25T10:38:07.740Z,20.20
2017-11-25T10:40:35.205Z,13.57
2017-11-25T10:43:02.660Z,12.65
2017-11-25T10:45:30.882Z,21.08
2017-11-25T10:47:58.345Z,10.13
2017-11-25T10:50:25.809Z,12.73
2017-11-25T10:52:54.030Z,12.02
2017-11-25T10:55:21.490Z,12.05
2017-11-25T10:57:48.946Z,9.70
2017-11-25T11:00:17.161Z,9.48
2017-11-25T11:02:44.630Z,9.60
2017-11-25T11:05:12.098Z,9.80
2017-11-25T11:07:39.617Z,10.32
2017-11-25T11:10:07.153Z,9.05
2017-11-25T11:12:34.626Z,11.48
2017-11-25T11:15:02.864Z,12.30
2017-11-25T11:17:30.316Z,8.75
2017-11-25T11:19:58.561Z,12.57
2017-11-25T11:22:26.119Z,8.75
2017-11-25T11:24:54.370Z,9.18
2017-11-25T11:27:21.910Z,7.70
2017-11-25T11:29:49.373Z,10.48
2017-11-25T11:32:16.834Z,7.62
2017-11-25T11:34:44.333Z,4.47
2017-11-25T11:37:12.592Z,6.70
2017-11-25T11:39:40.054Z,4.90
2017-11-25T11:42:08.277Z,6.27
2017-11-25T11:44:35.749Z,5.60
2017-11-25T11:47:03.970Z,6.97
2017-11-25T11:49:31.429Z,6.47
2017-11-25T11:51:58.884Z,4.37
2017-11-25T11:54:26.345Z,16.10
2017-11-25T11:56:53.814Z,3.30
2017-11-25T11:59:21.269Z,8.13
2017-11-25T12:01:48.725Z,4.93
2017-11-25T12:04:16.293Z,4.67
2017-11-25T12:06:44.509Z,4.93
2017-11-25T12:09:11.957Z,5.33
2017-11-25T12:11:39.411Z,6.67
2017-11-25T12:14:06.981Z,8.33
2017-11-25T12:16:35.197Z,7.10
2017-11-25T12:19:02.676Z,5.40
2017-11-25T12:21:30.221Z,3.90
2017-11-25T12:23:57.692Z,3.00
2017-11-25T12:26:25.141Z,4.07
2017-11-25T12:28:52.596Z,5.10
2017-11-25T12:31:20.085Z,4.40
2017-11-25T12:33:48.314Z,9.93
2017-11-25T12:36:15.772Z,7.47
2017-11-25T12:38:43.250Z,5.75
2017-11-25T12:41:10.706Z,6.07
2017-11-25T12:43:38.161Z,6.65
2017-11-25T12:46:05.621Z,10.85
2017-11-25T12:48:33.077Z,8.77
2017-11-25T12:51:00.554Z,5.65
2017-11-25T12:53:28.768Z,9.35
2017-11-25T12:55:56.222Z,5.62
2017-11-25T12:58:23.685Z,7.12
2017-11-25T13:00:51.904Z,7.37
2017-11-25T13:03:19.383Z,5.63
2017-11-25T13:05:46.924Z,5.70
2017-11-25T13:08:14.466Z,9.07
2017-11-25T13:10:42.682Z,5.50
2017-11-25T13:13:10.150Z,7.77
2017-11-25T13:15:37.610Z,13.23
2017-11-25T13:18:05.065Z,5.93
2017-11-25T13:20:33.415Z,7.57
2017-11-25T13:23:01.678Z,6.40
2017-11-25T13:25:29.897Z,6.85
2017-11-25T13:27:57.481Z,6.12
2017-11-25T13:30:25.741Z,8.80
2017-11-25T13:32:54.003Z,6.30
2017-11-25T13:35:22.245Z,6.62
2017-11-25T13:37:49.802Z,10.15
2017-11-25T13:40:17.248Z,7.95
2017-11-25T13:42:45.559Z,7.30
2017-11-25T13:45:13.010Z,8.20
2017-11-25T13:47:40.454Z,6.45
2017-11-25T13:50:07.933Z,8.93
2017-11-25T13:52:35.473Z,8.70
2017-11-25T13:55:02.913Z,5.80
2017-11-25T13:57:30.457Z,5.10
2017-11-25T13:59:57.910Z,6.87
2017-11-25T14:02:26.185Z,5.20
2017-11-25T14:04:53.712Z,6.00
2017-11-25T14:07:21.944Z,8.00
2017-11-25T14:09:49.391Z,7.20
2017-11-25T14:12:16.845Z,5.03
2017-11-25T14:14:44.386Z,6.43
2017-11-25T14:17:11.834Z,6.53
2017-11-25T14:19:40.053Z,7.60
2017-11-25T14:22:07.530Z,10.57
2017-11-25T14:24:35.072Z,10.43
2017-11-25T14:27:02.520Z,9.38
2017-11-25T14:29:30.774Z,11.38
2017-11-25T14:31:58.317Z,9.18
2017-11-25T14:34:25.865Z,9.02
2017-11-25T14:36:53.404Z,22.75
2017-11-25T14:39:20.870Z,12.82
2017-11-25T14:41:49.109Z,8.45
2017-11-25T14:44:16.672Z,8.65
2017-11-25T14:46:44.877Z,9.45
2017-11-25T14:49:12.333Z,8.35
2017-11-25T14:51:39.781Z,9.55
2017-11-25T14:54:07.234Z,9.88
2017-11-25T14:56:34.779Z,7.50
2017-11-25T14:59:02.321Z,8.88
2017-11-25T15:01:29.861Z,12.07
2017-11-25T15:03:57.914Z,6.93
2017-11-25T15:06:26.186Z,10.57
2017-11-25T15:08:54.442Z,10.95
2017-11-25T15:11:22.701Z,8.60
2017-11-25T15:13:50.148Z,12.68
2017-11-25T15:16:18.401Z,7.78
2017-11-25T15:18:45.853Z,9.85
2017-11-25T15:21:14.101Z,9.50
2017-11-25T15:23:41.568Z,8.75
2017-11-25T15:26:09.025Z,7.70
2017-11-25T15:28:36.889Z,11.35
2017-11-25T15:31:04.373Z,8.13
2017-11-25T15:33:31.826Z,12.88
2017-11-25T15:35:59.280Z,11.73
2017-11-25T15:38:27.515Z,11.30
2017-11-25T15:40:54.962Z,9.50
2017-11-25T15:43:22.414Z,8.75
2017-11-25T15:45:50.645Z,8.18
2017-11-25T15:48:18.094Z,12.70
2017-11-25T15:50:45.553Z,10.45
2017-11-25T15:53:13.782Z,12.00
2017-11-25T15:55:41.247Z,14.55
2017-11-25T15:58:08.795Z,11.18
2017-11-25T16:00:36.356Z,9.80
2017-11-25T16:03:04.611Z,14.20
2017-11-25T16:05:32.066Z,11.90
2017-11-25T16:07:59.577Z,13.23
2017-11-25T16:10:27.126Z,12.37
2017-11-25T16:12:54.666Z,12.35
2017-11-25T16:15:22.118Z,12.73
2017-11-25T16:17:50.353Z,12.13
2017-11-25T16:20:17.801Z,13.80
2017-11-25T16:22:45.353Z,15.27
2017-11-25T16:25:12.803Z,12.52
2017-11-25T16:27:41.025Z,14.27
2017-11-25T16:30:08.490Z,13.73
2017-11-25T16:32:36.037Z,17.62
2017-11-25T16:35:03.494Z,23.60
2017-11-25T16:37:31.741Z,18.50
2017-11-25T16:39:59.194Z,18.67
2017-11-25T16:42:27.417Z,19.40
2017-11-25T16:44:54.876Z,21.20
2017-11-25T16:47:22.386Z,17.58
2017-11-25T16:49:49.869Z,21.58
2017-11-25T16:52:17.326Z,19.12
2017-11-25T16:54:45.570Z,13.55
2017-11-25T16:57:13.026Z,11.52
2017-11-25T16:59:41.242Z,10.75
2017-11-25T17:02:08.705Z,9.60
2017-11-25T17:04:37.074Z,11.15
2017-11-25T17:07:04.521Z,11.25
2017-11-25T17:09:32.781Z,8.15
2017-11-25T17:12:00.221Z,8.95
2017-11-25T17:14:27.757Z,5.90
2017-11-25T17:16:55.301Z,10.30
2017-11-25T17:19:22.746Z,9.00
2017-11-25T17:21:50.286Z,6.20
2017-11-25T17:24:17.742Z,10.10
2017-11-25T17:26:45.989Z,6.97
2017-11-25T17:29:13.536Z,10.35
2017-11-25T17:31:40.978Z,6.60
2017-11-25T17:34:09.214Z,6.37
2017-11-25T17:36:36.653Z,7.57
2017-11-25T17:39:04.108Z,12.13
2017-11-25T17:41:31.659Z,12.18
2017-11-25T17:43:59.122Z,7.82
2017-11-25T17:46:27.358Z,8.40
2017-11-25T17:48:54.811Z,7.90
2017-11-25T17:51:23.062Z,9.70
2017-11-25T17:53:50.522Z,7.30
2017-11-25T17:56:18.737Z,13.88
2017-11-25T17:58:46.193Z,10.80
2017-11-25T18:01:13.749Z,10.15
2017-11-25T18:03:41.289Z,11.63
2017-11-25T18:06:08.737Z,9.75
2017-11-25T18:08:36.206Z,9.25
2017-11-25T18:11:03.717Z,11.73
2017-11-25T18:13:31.266Z,10.48
2017-11-25T18:15:59.497Z,10.45
2017-11-25T18:18:26.966Z,10.23
2017-11-25T18:20:55.221Z,9.45
2017-11-25T18:23:22.765Z,7.20
2017-11-25T18:25:50.214Z,9.77
2017-11-25T18:28:18.434Z,10.10
2017-11-25T18:30:46.008Z,8.93
2017-11-25T18:33:13.548Z,12.90
2017-11-25T18:35:42.533Z,9.48
2017-11-25T18:38:10.069Z,9.68
2017-11-25T18:40:37.523Z,11.70
2017-11-25T18:43:05.743Z,9.88
2017-11-25T18:45:33.226Z,10.85
2017-11-25T18:48:01.442Z,12.15
2017-11-25T18:50:28.891Z,11.93
2017-11-25T18:52:56.458Z,13.95
2017-11-25T18:55:24.005Z,12.23
2017-11-25T18:57:51.458Z,15.02
2017-11-25T19:00:19.717Z,12.85
2017-11-25T19:02:47.941Z,14.30
2017-11-25T19:05:15.404Z,12.73
2017-11-25T19:07:42.873Z,14.00
2017-11-25T19:10:10.322Z,12.80
2017-11-25T19:12:37.798Z,13.93
2017-11-25T19:15:05.278Z,16.70
2017-11-25T19:17:32.738Z,13.10
2017-11-25T19:20:00.969Z,13.43
2017-11-25T19:22:28.421Z,14.50
2017-11-25T19:24:55.871Z,12.48
2017-11-25T19:27:24.205Z,14.00
2017-11-25T19:29:53.199Z,11.90
2017-11-25T19:32:20.657Z,11.35
2017-11-25T19:34:48.885Z,13.05
2017-11-25T19:37:16.442Z,11.18
2017-11-25T19:39:43.901Z,10.77
2017-11-25T19:42:12.111Z,12.00
2017-11-25T19:44:39.578Z,8.32
2017-11-25T19:47:07.036Z,8.23
2017-11-25T19:49:35.254Z,9.88
2017-11-25T19:52:02.709Z,11.57
2017-11-25T19:54:30.154Z,7.80
2017-11-25T19:56:57.709Z,7.78
2017-11-25T19:59:25.154Z,7.22
2017-11-25T20:01:52.606Z,7.80
2017-11-25T20:04:20.853Z,6.97
2017-11-25T20:06:48.394Z,6.97
2017-11-25T20:09:16.634Z,7.47
2017-11-25T20:11:44.113Z,9.45
2017-11-25T20:14:12.358Z,7.15
2017-11-25T20:16:39.813Z,8.90
2017-11-25T20:19:08.058Z,5.32
2017-11-25T20:21:35.517Z,5.47
2017-11-25T20:24:03.763Z,5.65
2017-11-25T20:26:31.217Z,6.80
2017-11-25T20:28:59.453Z,4.90
2017-11-25T20:31:27.006Z,8.80
2017-11-25T20:33:54.549Z,4.70
2017-11-25T20:36:22.017Z,6.65
2017-11-25T20:38:49.465Z,4.40
2017-11-25T20:41:16.970Z,7.40
2017-11-25T20:43:44.518Z,5.40
2017-11-25T20:46:11.969Z,6.05
2017-11-25T20:48:40.216Z,6.47
2017-11-25T20:51:07.668Z,6.57
2017-11-25T20:53:36.313Z,4.68
2017-11-25T20:56:03.781Z,7.15
2017-11-25T20:58:32.011Z,4.78
2017-11-25T21:00:59.445Z,8.38
2017-11-25T21:03:26.913Z,5.28
2017-11-25T21:05:54.358Z,6.40
2017-11-25T21:08:21.829Z,5.97
2017-11-25T21:10:49.297Z,10.43
2017-11-25T21:13:16.861Z,12.50
2017-11-25T21:15:44.426Z,8.95
2017-11-25T21:18:11.970Z,6.78
2017-11-25T21:20:39.417Z,8.00
2017-11-25T21:23:07.672Z,7.05
2017-11-25T21:25:35.245Z,6.30
2017-11-25T21:28:02.692Z,10.15
2017-11-25T21:30:30.165Z,8.45
2017-11-25T21:32:57.742Z,9.82
2017-11-25T21:35:25.348Z,7.50
2017-11-25T21:37:52.799Z,13.62
2017-11-25T21:40:20.252Z,9.05
2017-11-25T21:42:47.711Z,9.77
2017-11-25T21:45:15.253Z,7.75
2017-11-25T21:47:42.701Z,6.43
2017-11-25T21:50:10.926Z,8.95
2017-11-25T21:52:38.399Z,24.20
2017-11-25T21:55:05.842Z,13.52
2017-11-25T21:57:34.202Z,9.23
2017-11-25T22:00:01.746Z,11.63
2017-11-25T22:02:29.242Z,12.23
2017-11-25T22:04:56.738Z,16.52
2017-11-25T22:07:24.966Z,14.25
2017-11-25T22:09:52.466Z,10.57
2017-11-25T22:12:19.973Z,11.90
2017-11-25T22:14:47.524Z,10.68
2017-11-25T22:17:14.969Z,12.88
2017-11-25T22:19:43.217Z,13.05
2017-11-25T22:22:10.757Z,15.35
2017-11-25T22:24:38.306Z,10.30
2017-11-25T22:27:05.849Z,17.58
2017-11-25T22:29:33.410Z,16.15
2017-11-25T22:32:01.693Z,15.93
2017-11-25T22:34:29.154Z,14.32
2017-11-25T22:36:56.629Z,14.40
2017-11-25T22:39:24.080Z,15.90
2017-11-25T22:41:51.535Z,26.98
2017-11-25T22:44:19.761Z,17.95
2017-11-25T22:46:47.218Z,17.80
2017-11-25T22:49:14.777Z,18.35
2017-11-25T22:51:43.022Z,20.50
2017-11-25T22:54:11.273Z,19.75
2017-11-25T22:56:38.733Z,20.65
2017-11-25T22:59:06.982Z,17.75
2017-11-25T23:01:34.525Z,16.95
2017-11-25T23:04:03.286Z,19.83
2017-11-25T23:06:30.834Z,20.65
2017-11-25T23:08:58.378Z,20.77
2017-11-25T23:11:25.830Z,18.80
2017-11-25T23:13:54.061Z,25.48
2017-11-25T23:16:21.516Z,14.25
2017-11-25T23:18:49.065Z,22.15
2017-11-25T23:21:16.553Z,23.25
2017-11-25T23:23:44.018Z,16.80
2017-11-25T23:26:11.493Z,16.90
2017-11-25T23:28:39.718Z,15.40
2017-11-25T23:31:07.173Z,19.75
2017-11-25T23:33:34.745Z,15.77
2017-11-25T23:36:02.966Z,21.87
2017-11-25T23:38:30.413Z,23.90
2017-11-25T23:40:57.982Z,15.68
2017-11-25T23:43:25.441Z,19.08
2017-11-25T23:45:53.662Z,20.42
2017-11-25T23:48:21.134Z,20.52
2017-11-25T23:50:49.386Z,19.42
2017-11-25T23:53:17.188Z,19.95
2017-11-25T23:55:44.653Z,18.83
2017-11-25T23:58:12.125Z,19.75
